sensor_id;sensor_type;location;lat;lon;timestamp;P1;durP1;ratioP1;P2;durP2;ratioP2
48534;SDS011;34323;52.022;5.686;2022-10-16T00:00:39;4.68;;;2.10;;
48534;SDS011;34323;52.022;5.686;2022-10-16T00:03:06;10.52;;;2.30;;
48534;SDS011;34323;52.022;5.686;2022-10-16T00:05:32;3.85;;;2.30;;
48534;SDS011;34323;52.022;5.686;2022-10-16T00:07:58;4.80;;;2.45;;
48534;SDS011;34323;52.022;5.686;2022-10-16T00:10:23;9.93;;;2.83;;
48534;SDS011;34323;52.022;5.686;2022-10-16T00:12:49;3.83;;;2.10;;
48534;SDS011;34323;52.022;5.686;2022-10-16T00:15:15;6.25;;;2.40;;
48534;SDS011;34323;52.022;5.686;2022-10-16T00:17:40;4.80;;;2.17;;
48534;SDS011;34323;52.022;5.686;2022-10-16T00:20:06;4.07;;;2.25;;
48534;SDS011;34323;52.022;5.686;2022-10-16T00:22:32;5.75;;;2.08;;
48534;SDS011;34323;52.022;5.686;2022-10-16T00:24:58;7.95;;;2.38;;
48534;SDS011;34323;52.022;5.686;2022-10-16T00:27:23;5.90;;;2.30;;
48534;SDS011;34323;52.022;5.686;2022-10-16T00:29:49;6.07;;;2.10;;
48534;SDS011;34323;52.022;5.686;2022-10-16T00:32:16;4.18;;;2.60;;
48534;SDS011;34323;52.022;5.686;2022-10-16T00:34:42;3.60;;;2.20;;
48534;SDS011;34323;52.022;5.686;2022-10-16T00:37:08;5.50;;;2.60;;
48534;SDS011;34323;52.022;5.686;2022-10-16T00:39:33;7.65;;;3.30;;
48534;SDS011;34323;52.022;5.686;2022-10-16T00:41:59;5.60;;;2.00;;
48534;SDS011;34323;52.022;5.686;2022-10-16T00:47:12;5.18;;;2.53;;
48534;SDS011;34323;52.022;5.686;2022-10-16T00:49:47;5.43;;;2.75;;
48534;SDS011;34323;52.022;5.686;2022-10-16T00:52:16;11.60;;;2.60;;
48534;SDS011;34323;52.022;5.686;2022-10-16T00:54:42;4.50;;;2.65;;
48534;SDS011;34323;52.022;5.686;2022-10-16T00:57:09;7.43;;;2.78;;
48534;SDS011;34323;52.022;5.686;2022-10-16T00:59:39;4.13;;;2.58;;
48534;SDS011;34323;52.022;5.686;2022-10-16T01:02:07;6.10;;;2.70;;
48534;SDS011;34323;52.022;5.686;2022-10-16T01:04:44;8.85;;;2.88;;
48534;SDS011;34323;52.022;5.686;2022-10-16T01:15:11;4.43;;;2.70;;
48534;SDS011;34323;52.022;5.686;2022-10-16T01:17:57;6.60;;;2.50;;
48534;SDS011;34323;52.022;5.686;2022-10-16T01:20:31;3.88;;;2.25;;
48534;SDS011;34323;52.022;5.686;2022-10-16T01:29:15;5.45;;;2.75;;
48534;SDS011;34323;52.022;5.686;2022-10-16T01:31:53;5.22;;;2.85;;
48534;SDS011;34323;52.022;5.686;2022-10-16T01:34:35;6.35;;;2.92;;
48534;SDS011;34323;52.022;5.686;2022-10-16T01:37:07;6.68;;;3.25;;
48534;SDS011;34323;52.022;5.686;2022-10-16T01:39:38;5.55;;;2.80;;
48534;SDS011;34323;52.022;5.686;2022-10-16T01:42:09;6.93;;;2.70;;
48534;SDS011;34323;52.022;5.686;2022-10-16T01:44:38;4.18;;;2.60;;
48534;SDS011;34323;52.022;5.686;2022-10-16T01:47:07;7.85;;;2.75;;
48534;SDS011;34323;52.022;5.686;2022-10-16T01:49:35;5.55;;;2.83;;
48534;SDS011;34323;52.022;5.686;2022-10-16T01:52:05;6.22;;;2.70;;
48534;SDS011;34323;52.022;5.686;2022-10-16T01:54:34;6.15;;;2.60;;
48534;SDS011;34323;52.022;5.686;2022-10-16T01:57:01;3.50;;;2.28;;
48534;SDS011;34323;52.022;5.686;2022-10-16T01:59:30;3.42;;;2.30;;
48534;SDS011;34323;52.022;5.686;2022-10-16T02:02:01;5.30;;;2.78;;
48534;SDS011;34323;52.022;5.686;2022-10-16T02:04:35;5.57;;;2.33;;
48534;SDS011;34323;52.022;5.686;2022-10-16T02:07:04;3.05;;;2.17;;
48534;SDS011;34323;52.022;5.686;2022-10-16T02:09:31;5.22;;;3.15;;
48534;SDS011;34323;52.022;5.686;2022-10-16T02:11:59;5.78;;;2.65;;
48534;SDS011;34323;52.022;5.686;2022-10-16T02:14:31;8.38;;;2.53;;
48534;SDS011;34323;52.022;5.686;2022-10-16T02:16:57;4.50;;;2.20;;
48534;SDS011;34323;52.022;5.686;2022-10-16T02:19:23;3.90;;;2.53;;
48534;SDS011;34323;52.022;5.686;2022-10-16T02:21:50;6.68;;;2.25;;
48534;SDS011;34323;52.022;5.686;2022-10-16T02:30:00;4.22;;;2.20;;
48534;SDS011;34323;52.022;5.686;2022-10-16T02:32:32;6.88;;;2.63;;
48534;SDS011;34323;52.022;5.686;2022-10-16T02:34:59;2.72;;;1.85;;
48534;SDS011;34323;52.022;5.686;2022-10-16T02:37:25;4.03;;;2.00;;
48534;SDS011;34323;52.022;5.686;2022-10-16T02:39:52;6.47;;;2.65;;
48534;SDS011;34323;52.022;5.686;2022-10-16T02:42:19;3.85;;;1.90;;
48534;SDS011;34323;52.022;5.686;2022-10-16T02:44:44;4.50;;;2.00;;
48534;SDS011;34323;52.022;5.686;2022-10-16T02:47:10;5.63;;;2.30;;
48534;SDS011;34323;52.022;5.686;2022-10-16T02:49:36;4.75;;;2.50;;
48534;SDS011;34323;52.022;5.686;2022-10-16T02:52:02;4.43;;;2.80;;
48534;SDS011;34323;52.022;5.686;2022-10-16T02:54:28;7.28;;;2.75;;
48534;SDS011;34323;52.022;5.686;2022-10-16T02:56:53;4.90;;;2.60;;
48534;SDS011;34323;52.022;5.686;2022-10-16T02:59:19;5.15;;;2.47;;
48534;SDS011;34323;52.022;5.686;2022-10-16T03:01:44;3.10;;;1.60;;
48534;SDS011;34323;52.022;5.686;2022-10-16T03:04:10;4.03;;;2.25;;
48534;SDS011;34323;52.022;5.686;2022-10-16T03:06:35;4.95;;;2.17;;
48534;SDS011;34323;52.022;5.686;2022-10-16T03:09:01;4.43;;;2.38;;
48534;SDS011;34323;52.022;5.686;2022-10-16T03:11:27;3.28;;;1.88;;
48534;SDS011;34323;52.022;5.686;2022-10-16T03:13:53;11.25;;;2.05;;
48534;SDS011;34323;52.022;5.686;2022-10-16T03:16:18;2.92;;;1.45;;
48534;SDS011;34323;52.022;5.686;2022-10-16T03:18:47;4.80;;;2.05;;
48534;SDS011;34323;52.022;5.686;2022-10-16T03:21:14;3.72;;;1.63;;
48534;SDS011;34323;52.022;5.686;2022-10-16T03:23:40;2.50;;;1.92;;
48534;SDS011;34323;52.022;5.686;2022-10-16T03:26:05;3.03;;;1.90;;
48534;SDS011;34323;52.022;5.686;2022-10-16T03:28:31;5.45;;;1.98;;
48534;SDS011;34323;52.022;5.686;2022-10-16T03:30:56;3.38;;;1.90;;
48534;SDS011;34323;52.022;5.686;2022-10-16T03:33:22;4.40;;;2.03;;
48534;SDS011;34323;52.022;5.686;2022-10-16T03:35:51;4.68;;;2.17;;
48534;SDS011;34323;52.022;5.686;2022-10-16T03:38:18;2.63;;;1.35;;
48534;SDS011;34323;52.022;5.686;2022-10-16T03:40:44;2.70;;;1.92;;
48534;SDS011;34323;52.022;5.686;2022-10-16T03:43:09;2.08;;;1.50;;
48534;SDS011;34323;52.022;5.686;2022-10-16T03:45:35;5.75;;;1.75;;
48534;SDS011;34323;52.022;5.686;2022-10-16T03:48:00;4.43;;;2.08;;
48534;SDS011;34323;52.022;5.686;2022-10-16T03:50:27;3.92;;;1.80;;
48534;SDS011;34323;52.022;5.686;2022-10-16T03:52:53;2.35;;;1.63;;
48534;SDS011;34323;52.022;5.686;2022-10-16T03:55:18;3.22;;;1.77;;
48534;SDS011;34323;52.022;5.686;2022-10-16T03:57:44;2.35;;;1.60;;
48534;SDS011;34323;52.022;5.686;2022-10-16T04:00:09;3.80;;;1.63;;
48534;SDS011;34323;52.022;5.686;2022-10-16T04:02:36;4.00;;;1.63;;
48534;SDS011;34323;52.022;5.686;2022-10-16T04:05:01;1.90;;;1.38;;
48534;SDS011;34323;52.022;5.686;2022-10-16T04:07:27;3.67;;;1.80;;
48534;SDS011;34323;52.022;5.686;2022-10-16T04:09:53;5.30;;;1.50;;
48534;SDS011;34323;52.022;5.686;2022-10-16T04:12:19;4.95;;;1.60;;
48534;SDS011;34323;52.022;5.686;2022-10-16T04:14:44;3.80;;;1.42;;
48534;SDS011;34323;52.022;5.686;2022-10-16T04:17:10;4.22;;;2.40;;
48534;SDS011;34323;52.022;5.686;2022-10-16T04:19:35;2.28;;;1.65;;
48534;SDS011;34323;52.022;5.686;2022-10-16T04:22:02;2.75;;;1.70;;
48534;SDS011;34323;52.022;5.686;2022-10-16T04:24:27;3.28;;;2.00;;
48534;SDS011;34323;52.022;5.686;2022-10-16T04:26:53;2.65;;;1.83;;
48534;SDS011;34323;52.022;5.686;2022-10-16T04:29:18;2.33;;;1.55;;
48534;SDS011;34323;52.022;5.686;2022-10-16T04:31:44;7.13;;;3.60;;
48534;SDS011;34323;52.022;5.686;2022-10-16T04:34:09;2.92;;;1.83;;
48534;SDS011;34323;52.022;5.686;2022-10-16T04:36:35;3.25;;;1.73;;
48534;SDS011;34323;52.022;5.686;2022-10-16T04:39:00;2.45;;;1.55;;
48534;SDS011;34323;52.022;5.686;2022-10-16T04:41:26;2.40;;;1.70;;
48534;SDS011;34323;52.022;5.686;2022-10-16T04:43:52;3.00;;;2.05;;
48534;SDS011;34323;52.022;5.686;2022-10-16T04:46:17;6.00;;;1.98;;
48534;SDS011;34323;52.022;5.686;2022-10-16T04:48:43;2.50;;;1.58;;
48534;SDS011;34323;52.022;5.686;2022-10-16T04:51:08;3.75;;;1.98;;
48534;SDS011;34323;52.022;5.686;2022-10-16T04:53:34;4.13;;;1.92;;
48534;SDS011;34323;52.022;5.686;2022-10-16T04:55:59;7.18;;;2.58;;
48534;SDS011;34323;52.022;5.686;2022-10-16T04:58:25;3.78;;;2.03;;
48534;SDS011;34323;52.022;5.686;2022-10-16T05:00:50;2.53;;;1.85;;
48534;SDS011;34323;52.022;5.686;2022-10-16T05:03:16;4.10;;;1.80;;
48534;SDS011;34323;52.022;5.686;2022-10-16T05:05:42;5.38;;;2.35;;
48534;SDS011;34323;52.022;5.686;2022-10-16T05:08:09;3.10;;;1.75;;
48534;SDS011;34323;52.022;5.686;2022-10-16T05:10:35;2.15;;;1.40;;
48534;SDS011;34323;52.022;5.686;2022-10-16T05:13:00;2.05;;;1.25;;
48534;SDS011;34323;52.022;5.686;2022-10-16T05:15:26;2.65;;;1.55;;
48534;SDS011;34323;52.022;5.686;2022-10-16T05:17:52;4.72;;;1.48;;
48534;SDS011;34323;52.022;5.686;2022-10-16T05:20:19;3.83;;;1.45;;
48534;SDS011;34323;52.022;5.686;2022-10-16T05:22:44;2.38;;;1.40;;
48534;SDS011;34323;52.022;5.686;2022-10-16T05:25:10;2.30;;;1.50;;
48534;SDS011;34323;52.022;5.686;2022-10-16T05:27:36;4.53;;;1.48;;
48534;SDS011;34323;52.022;5.686;2022-10-16T05:30:02;2.80;;;1.60;;
48534;SDS011;34323;52.022;5.686;2022-10-16T05:32:28;3.90;;;1.80;;
48534;SDS011;34323;52.022;5.686;2022-10-16T05:34:53;3.15;;;1.55;;
48534;SDS011;34323;52.022;5.686;2022-10-16T05:37:19;2.47;;;1.77;;
48534;SDS011;34323;52.022;5.686;2022-10-16T05:39:44;7.55;;;1.73;;
48534;SDS011;34323;52.022;5.686;2022-10-16T05:42:10;2.75;;;1.63;;
48534;SDS011;34323;52.022;5.686;2022-10-16T05:44:35;2.80;;;1.95;;
48534;SDS011;34323;52.022;5.686;2022-10-16T05:47:01;3.38;;;1.50;;
48534;SDS011;34323;52.022;5.686;2022-10-16T05:49:26;4.03;;;2.00;;
48534;SDS011;34323;52.022;5.686;2022-10-16T05:51:52;5.03;;;1.58;;
48534;SDS011;34323;52.022;5.686;2022-10-16T05:54:18;8.40;;;1.70;;
48534;SDS011;34323;52.022;5.686;2022-10-16T05:56:43;5.22;;;2.08;;
48534;SDS011;34323;52.022;5.686;2022-10-16T05:59:09;2.60;;;1.77;;
48534;SDS011;34323;52.022;5.686;2022-10-16T06:01:34;2.58;;;1.83;;
48534;SDS011;34323;52.022;5.686;2022-10-16T06:04:00;4.05;;;2.33;;
48534;SDS011;34323;52.022;5.686;2022-10-16T06:06:26;3.83;;;2.17;;
48534;SDS011;34323;52.022;5.686;2022-10-16T06:08:53;2.63;;;1.73;;
48534;SDS011;34323;52.022;5.686;2022-10-16T06:11:21;3.28;;;1.70;;
48534;SDS011;34323;52.022;5.686;2022-10-16T06:13:49;2.15;;;1.50;;
48534;SDS011;34323;52.022;5.686;2022-10-16T06:16:19;4.45;;;2.03;;
48534;SDS011;34323;52.022;5.686;2022-10-16T06:18:45;2.92;;;1.83;;
48534;SDS011;34323;52.022;5.686;2022-10-16T06:21:16;5.72;;;2.00;;
48534;SDS011;34323;52.022;5.686;2022-10-16T06:23:43;9.57;;;2.10;;
48534;SDS011;34323;52.022;5.686;2022-10-16T06:26:11;3.92;;;2.10;;
48534;SDS011;34323;52.022;5.686;2022-10-16T06:28:39;3.05;;;1.70;;
48534;SDS011;34323;52.022;5.686;2022-10-16T06:31:05;3.67;;;2.15;;
48534;SDS011;34323;52.022;5.686;2022-10-16T06:33:33;2.75;;;1.95;;
48534;SDS011;34323;52.022;5.686;2022-10-16T06:36:02;5.35;;;2.80;;
48534;SDS011;34323;52.022;5.686;2022-10-16T06:38:29;2.45;;;1.73;;
48534;SDS011;34323;52.022;5.686;2022-10-16T06:40:55;7.63;;;1.83;;
48534;SDS011;34323;52.022;5.686;2022-10-16T06:43:20;2.92;;;1.60;;
48534;SDS011;34323;52.022;5.686;2022-10-16T06:45:53;3.72;;;1.63;;
48534;SDS011;34323;52.022;5.686;2022-10-16T06:48:19;3.53;;;1.67;;
48534;SDS011;34323;52.022;5.686;2022-10-16T06:50:58;3.80;;;1.65;;
48534;SDS011;34323;52.022;5.686;2022-10-16T06:53:35;5.07;;;1.65;;
48534;SDS011;34323;52.022;5.686;2022-10-16T06:56:09;1.65;;;1.50;;
48534;SDS011;34323;52.022;5.686;2022-10-16T06:58:37;2.40;;;1.50;;
48534;SDS011;34323;52.022;5.686;2022-10-16T07:01:03;3.60;;;1.70;;
48534;SDS011;34323;52.022;5.686;2022-10-16T07:03:29;3.70;;;2.00;;
48534;SDS011;34323;52.022;5.686;2022-10-16T07:05:55;3.28;;;1.63;;
48534;SDS011;34323;52.022;5.686;2022-10-16T07:08:21;2.15;;;1.30;;
48534;SDS011;34323;52.022;5.686;2022-10-16T07:10:47;6.13;;;1.83;;
48534;SDS011;34323;52.022;5.686;2022-10-16T07:13:13;3.55;;;1.63;;
48534;SDS011;34323;52.022;5.686;2022-10-16T07:15:39;2.28;;;1.33;;
48534;SDS011;34323;52.022;5.686;2022-10-16T07:18:06;2.60;;;1.42;;
48534;SDS011;34323;52.022;5.686;2022-10-16T07:20:31;2.55;;;1.67;;
48534;SDS011;34323;52.022;5.686;2022-10-16T07:22:57;2.53;;;1.77;;
48534;SDS011;34323;52.022;5.686;2022-10-16T07:25:23;3.67;;;1.67;;
48534;SDS011;34323;52.022;5.686;2022-10-16T07:27:48;4.35;;;1.60;;
48534;SDS011;34323;52.022;5.686;2022-10-16T07:30:14;2.80;;;1.50;;
48534;SDS011;34323;52.022;5.686;2022-10-16T07:32:39;6.00;;;2.00;;
48534;SDS011;34323;52.022;5.686;2022-10-16T07:35:05;2.38;;;1.75;;
48534;SDS011;34323;52.022;5.686;2022-10-16T07:37:31;5.65;;;1.92;;
48534;SDS011;34323;52.022;5.686;2022-10-16T07:39:57;3.95;;;1.83;;
48534;SDS011;34323;52.022;5.686;2022-10-16T07:42:22;3.08;;;1.65;;
48534;SDS011;34323;52.022;5.686;2022-10-16T07:44:48;2.67;;;1.80;;
48534;SDS011;34323;52.022;5.686;2022-10-16T07:47:13;3.22;;;2.10;;
48534;SDS011;34323;52.022;5.686;2022-10-16T07:49:39;11.93;;;2.13;;
48534;SDS011;34323;52.022;5.686;2022-10-16T07:52:04;3.67;;;1.85;;
48534;SDS011;34323;52.022;5.686;2022-10-16T07:54:30;4.20;;;2.35;;
48534;SDS011;34323;52.022;5.686;2022-10-16T07:56:55;8.32;;;2.42;;
48534;SDS011;34323;52.022;5.686;2022-10-16T07:59:21;5.65;;;1.95;;
48534;SDS011;34323;52.022;5.686;2022-10-16T08:01:46;6.55;;;2.42;;
48534;SDS011;34323;52.022;5.686;2022-10-16T08:04:14;2.75;;;1.70;;
48534;SDS011;34323;52.022;5.686;2022-10-16T08:06:40;3.55;;;2.08;;
48534;SDS011;34323;52.022;5.686;2022-10-16T08:09:06;4.72;;;2.00;;
48534;SDS011;34323;52.022;5.686;2022-10-16T08:11:32;2.90;;;1.52;;
48534;SDS011;34323;52.022;5.686;2022-10-16T08:13:58;2.95;;;1.52;;
48534;SDS011;34323;52.022;5.686;2022-10-16T08:16:23;5.20;;;2.20;;
48534;SDS011;34323;52.022;5.686;2022-10-16T08:18:49;4.60;;;1.95;;
48534;SDS011;34323;52.022;5.686;2022-10-16T08:21:17;6.78;;;2.45;;
48534;SDS011;34323;52.022;5.686;2022-10-16T08:23:44;2.58;;;1.98;;
48534;SDS011;34323;52.022;5.686;2022-10-16T08:26:10;5.72;;;2.20;;
48534;SDS011;34323;52.022;5.686;2022-10-16T08:28:36;3.33;;;2.30;;
48534;SDS011;34323;52.022;5.686;2022-10-16T08:31:06;3.78;;;2.13;;
48534;SDS011;34323;52.022;5.686;2022-10-16T08:33:40;4.07;;;2.05;;
48534;SDS011;34323;52.022;5.686;2022-10-16T08:36:07;6.15;;;2.33;;
48534;SDS011;34323;52.022;5.686;2022-10-16T08:38:35;3.88;;;2.22;;
48534;SDS011;34323;52.022;5.686;2022-10-16T08:41:19;4.68;;;1.70;;
48534;SDS011;34323;52.022;5.686;2022-10-16T08:44:27;6.65;;;2.83;;
48534;SDS011;34323;52.022;5.686;2022-10-16T08:47:12;2.60;;;1.90;;
48534;SDS011;34323;52.022;5.686;2022-10-16T08:49:44;4.88;;;2.20;;
48534;SDS011;34323;52.022;5.686;2022-10-16T08:52:21;3.95;;;1.98;;
48534;SDS011;34323;52.022;5.686;2022-10-16T08:54:50;3.92;;;2.05;;
48534;SDS011;34323;52.022;5.686;2022-10-16T08:57:21;5.75;;;2.22;;
48534;SDS011;34323;52.022;5.686;2022-10-16T08:59:47;2.97;;;1.95;;
48534;SDS011;34323;52.022;5.686;2022-10-16T09:02:24;2.80;;;1.50;;
48534;SDS011;34323;52.022;5.686;2022-10-16T09:10:57;3.70;;;1.48;;
48534;SDS011;34323;52.022;5.686;2022-10-16T09:13:48;7.20;;;1.70;;
48534;SDS011;34323;52.022;5.686;2022-10-16T09:16:24;3.03;;;1.40;;
48534;SDS011;34323;52.022;5.686;2022-10-16T09:19:01;4.22;;;1.25;;
48534;SDS011;34323;52.022;5.686;2022-10-16T09:21:49;8.73;;;1.90;;
48534;SDS011;34323;52.022;5.686;2022-10-16T09:24:16;6.63;;;1.77;;
48534;SDS011;34323;52.022;5.686;2022-10-16T09:26:43;4.35;;;1.45;;
48534;SDS011;34323;52.022;5.686;2022-10-16T09:29:17;4.38;;;1.67;;
48534;SDS011;34323;52.022;5.686;2022-10-16T09:31:48;3.20;;;1.45;;
48534;SDS011;34323;52.022;5.686;2022-10-16T09:34:24;10.32;;;2.03;;
48534;SDS011;34323;52.022;5.686;2022-10-16T09:36:56;3.78;;;1.80;;
48534;SDS011;34323;52.022;5.686;2022-10-16T09:39:23;7.80;;;1.63;;
48534;SDS011;34323;52.022;5.686;2022-10-16T09:41:49;6.55;;;1.88;;
48534;SDS011;34323;52.022;5.686;2022-10-16T09:44:26;7.90;;;1.40;;
48534;SDS011;34323;52.022;5.686;2022-10-16T09:47:04;4.53;;;1.48;;
48534;SDS011;34323;52.022;5.686;2022-10-16T09:49:37;4.35;;;1.77;;
48534;SDS011;34323;52.022;5.686;2022-10-16T09:52:09;5.05;;;1.38;;
48534;SDS011;34323;52.022;5.686;2022-10-16T09:54:37;8.90;;;1.98;;
48534;SDS011;34323;52.022;5.686;2022-10-16T09:57:13;2.50;;;1.20;;
48534;SDS011;34323;52.022;5.686;2022-10-16T09:59:46;4.85;;;1.27;;
48534;SDS011;34323;52.022;5.686;2022-10-16T10:02:13;8.75;;;1.33;;
48534;SDS011;34323;52.022;5.686;2022-10-16T10:04:43;7.57;;;1.73;;
48534;SDS011;34323;52.022;5.686;2022-10-16T10:07:18;5.80;;;1.27;;
48534;SDS011;34323;52.022;5.686;2022-10-16T10:09:48;7.28;;;1.80;;
48534;SDS011;34323;52.022;5.686;2022-10-16T10:12:17;6.03;;;1.67;;
48534;SDS011;34323;52.022;5.686;2022-10-16T10:14:46;6.47;;;1.30;;
48534;SDS011;34323;52.022;5.686;2022-10-16T10:17:18;7.85;;;1.25;;
48534;SDS011;34323;52.022;5.686;2022-10-16T10:22:32;5.78;;;1.50;;
48534;SDS011;34323;52.022;5.686;2022-10-16T10:45:03;15.63;;;2.50;;
48534;SDS011;34323;52.022;5.686;2022-10-16T10:47:45;5.90;;;1.77;;
48534;SDS011;34323;52.022;5.686;2022-10-16T10:56:09;8.95;;;2.65;;
48534;SDS011;34323;52.022;5.686;2022-10-16T10:59:01;7.88;;;1.13;;
48534;SDS011;34323;52.022;5.686;2022-10-16T11:01:52;11.52;;;1.50;;
48534;SDS011;34323;52.022;5.686;2022-10-16T11:04:42;5.03;;;1.55;;
48534;SDS011;34323;52.022;5.686;2022-10-16T11:07:37;4.75;;;1.40;;
48534;SDS011;34323;52.022;5.686;2022-10-16T11:10:12;3.38;;;1.23;;
48534;SDS011;34323;52.022;5.686;2022-10-16T11:12:48;5.93;;;1.17;;
48534;SDS011;34323;52.022;5.686;2022-10-16T11:15:30;6.25;;;1.42;;
48534;SDS011;34323;52.022;5.686;2022-10-16T11:18:06;8.35;;;1.27;;
48534;SDS011;34323;52.022;5.686;2022-10-16T11:20:47;5.45;;;1.73;;
48534;SDS011;34323;52.022;5.686;2022-10-16T11:23:19;3.72;;;1.10;;
48534;SDS011;34323;52.022;5.686;2022-10-16T11:25:58;5.97;;;1.42;;
48534;SDS011;34323;52.022;5.686;2022-10-16T11:28:34;5.13;;;1.17;;
48534;SDS011;34323;52.022;5.686;2022-10-16T11:31:14;10.95;;;1.60;;
48534;SDS011;34323;52.022;5.686;2022-10-16T11:33:55;6.40;;;1.70;;
48534;SDS011;34323;52.022;5.686;2022-10-16T11:39:03;5.53;;;1.02;;
48534;SDS011;34323;52.022;5.686;2022-10-16T11:41:32;7.30;;;1.20;;
48534;SDS011;34323;52.022;5.686;2022-10-16T11:44:16;7.20;;;1.58;;
48534;SDS011;34323;52.022;5.686;2022-10-16T11:47:06;9.38;;;1.20;;
48534;SDS011;34323;52.022;5.686;2022-10-16T11:49:49;2.22;;;0.85;;
48534;SDS011;34323;52.022;5.686;2022-10-16T11:52:40;3.67;;;1.35;;
48534;SDS011;34323;52.022;5.686;2022-10-16T11:58:22;4.50;;;0.85;;
48534;SDS011;34323;52.022;5.686;2022-10-16T12:01:15;3.60;;;1.17;;
48534;SDS011;34323;52.022;5.686;2022-10-16T12:06:14;9.38;;;1.70;;
48534;SDS011;34323;52.022;5.686;2022-10-16T12:08:52;7.63;;;1.25;;
48534;SDS011;34323;52.022;5.686;2022-10-16T12:14:06;6.68;;;1.40;;
48534;SDS011;34323;52.022;5.686;2022-10-16T12:16:36;7.15;;;1.40;;
48534;SDS011;34323;52.022;5.686;2022-10-16T12:19:30;6.90;;;1.50;;
48534;SDS011;34323;52.022;5.686;2022-10-16T12:21:58;3.67;;;1.10;;
48534;SDS011;34323;52.022;5.686;2022-10-16T12:24:38;5.32;;;1.25;;
48534;SDS011;34323;52.022;5.686;2022-10-16T12:27:20;5.03;;;1.58;;
48534;SDS011;34323;52.022;5.686;2022-10-16T12:29:56;6.72;;;1.50;;
48534;SDS011;34323;52.022;5.686;2022-10-16T12:37:35;3.90;;;1.48;;
48534;SDS011;34323;52.022;5.686;2022-10-16T12:40:15;8.00;;;1.08;;
48534;SDS011;34323;52.022;5.686;2022-10-16T12:42:50;5.13;;;1.63;;
48534;SDS011;34323;52.022;5.686;2022-10-16T12:47:58;5.20;;;1.40;;
48534;SDS011;34323;52.022;5.686;2022-10-16T12:50:36;5.28;;;1.20;;
48534;SDS011;34323;52.022;5.686;2022-10-16T12:53:15;8.98;;;1.42;;
48534;SDS011;34323;52.022;5.686;2022-10-16T12:55:56;3.80;;;1.10;;
48534;SDS011;34323;52.022;5.686;2022-10-16T13:01:25;6.95;;;1.13;;
48534;SDS011;34323;52.022;5.686;2022-10-16T13:04:04;5.95;;;1.55;;
48534;SDS011;34323;52.022;5.686;2022-10-16T13:06:56;5.28;;;0.90;;
48534;SDS011;34323;52.022;5.686;2022-10-16T13:09:49;5.82;;;1.88;;
48534;SDS011;34323;52.022;5.686;2022-10-16T13:12:31;7.80;;;1.65;;
48534;SDS011;34323;52.022;5.686;2022-10-16T13:15:26;3.03;;;1.10;;
48534;SDS011;34323;52.022;5.686;2022-10-16T13:18:17;13.48;;;1.77;;
48534;SDS011;34323;52.022;5.686;2022-10-16T13:20:53;8.15;;;1.60;;
48534;SDS011;34323;52.022;5.686;2022-10-16T13:23:57;9.02;;;2.03;;
48534;SDS011;34323;52.022;5.686;2022-10-16T13:26:56;4.88;;;1.30;;
48534;SDS011;34323;52.022;5.686;2022-10-16T13:29:41;4.82;;;1.48;;
48534;SDS011;34323;52.022;5.686;2022-10-16T13:32:07;7.75;;;1.73;;
48534;SDS011;34323;52.022;5.686;2022-10-16T13:34:44;4.80;;;1.15;;
48534;SDS011;34323;52.022;5.686;2022-10-16T13:37:21;6.18;;;1.33;;
48534;SDS011;34323;52.022;5.686;2022-10-16T13:39:49;3.10;;;0.80;;
48534;SDS011;34323;52.022;5.686;2022-10-16T13:42:22;7.68;;;1.83;;
48534;SDS011;34323;52.022;5.686;2022-10-16T13:44:51;8.10;;;1.45;;
48534;SDS011;34323;52.022;5.686;2022-10-16T13:47:19;5.95;;;1.10;;
48534;SDS011;34323;52.022;5.686;2022-10-16T13:49:59;6.18;;;1.65;;
48534;SDS011;34323;52.022;5.686;2022-10-16T13:52:34;7.63;;;1.25;;
48534;SDS011;34323;52.022;5.686;2022-10-16T13:54:59;4.75;;;1.20;;
48534;SDS011;34323;52.022;5.686;2022-10-16T13:57:25;4.57;;;1.20;;
48534;SDS011;34323;52.022;5.686;2022-10-16T13:59:50;4.45;;;1.58;;
48534;SDS011;34323;52.022;5.686;2022-10-16T14:04:54;5.85;;;1.50;;
48534;SDS011;34323;52.022;5.686;2022-10-16T14:07:25;4.10;;;1.23;;
48534;SDS011;34323;52.022;5.686;2022-10-16T14:09:53;6.10;;;1.03;;
48534;SDS011;34323;52.022;5.686;2022-10-16T14:12:20;4.70;;;1.52;;
48534;SDS011;34323;52.022;5.686;2022-10-16T14:14:51;6.82;;;1.30;;
48534;SDS011;34323;52.022;5.686;2022-10-16T14:17:28;5.30;;;1.30;;
48534;SDS011;34323;52.022;5.686;2022-10-16T14:19:56;4.43;;;1.17;;
48534;SDS011;34323;52.022;5.686;2022-10-16T14:24:58;4.32;;;1.00;;
48534;SDS011;34323;52.022;5.686;2022-10-16T14:27:30;8.13;;;2.03;;
48534;SDS011;34323;52.022;5.686;2022-10-16T14:35:59;8.98;;;2.47;;
48534;SDS011;34323;52.022;5.686;2022-10-16T14:38:57;5.20;;;1.00;;
48534;SDS011;34323;52.022;5.686;2022-10-16T14:41:42;7.25;;;1.50;;
48534;SDS011;34323;52.022;5.686;2022-10-16T14:44:11;5.30;;;1.70;;
48534;SDS011;34323;52.022;5.686;2022-10-16T14:46:38;8.95;;;1.38;;
48534;SDS011;34323;52.022;5.686;2022-10-16T14:51:40;6.07;;;1.45;;
48534;SDS011;34323;52.022;5.686;2022-10-16T14:54:10;7.93;;;1.27;;
48534;SDS011;34323;52.022;5.686;2022-10-16T14:56:47;5.60;;;1.33;;
48534;SDS011;34323;52.022;5.686;2022-10-16T14:59:17;3.53;;;0.90;;
48534;SDS011;34323;52.022;5.686;2022-10-16T15:01:50;4.35;;;1.02;;
48534;SDS011;34323;52.022;5.686;2022-10-16T15:04:16;10.73;;;1.27;;
48534;SDS011;34323;52.022;5.686;2022-10-16T15:06:42;3.22;;;1.00;;
48534;SDS011;34323;52.022;5.686;2022-10-16T15:09:08;9.23;;;1.67;;
48534;SDS011;34323;52.022;5.686;2022-10-16T15:11:34;6.65;;;1.55;;
48534;SDS011;34323;52.022;5.686;2022-10-16T15:14:00;6.18;;;1.45;;
48534;SDS011;34323;52.022;5.686;2022-10-16T15:16:26;5.13;;;1.45;;
48534;SDS011;34323;52.022;5.686;2022-10-16T15:18:51;10.73;;;1.67;;
48534;SDS011;34323;52.022;5.686;2022-10-16T15:21:24;4.55;;;1.20;;
48534;SDS011;34323;52.022;5.686;2022-10-16T15:23:52;6.35;;;1.23;;
48534;SDS011;34323;52.022;5.686;2022-10-16T15:26:18;3.38;;;1.38;;
48534;SDS011;34323;52.022;5.686;2022-10-16T15:28:44;12.82;;;1.75;;
48534;SDS011;34323;52.022;5.686;2022-10-16T15:31:09;6.53;;;1.90;;
48534;SDS011;34323;52.022;5.686;2022-10-16T15:33:35;8.75;;;1.85;;
48534;SDS011;34323;52.022;5.686;2022-10-16T15:36:01;6.63;;;2.70;;
48534;SDS011;34323;52.022;5.686;2022-10-16T15:38:27;13.18;;;2.85;;
48534;SDS011;34323;52.022;5.686;2022-10-16T15:40:54;10.35;;;2.53;;
48534;SDS011;34323;52.022;5.686;2022-10-16T15:43:20;4.60;;;2.55;;
48534;SDS011;34323;52.022;5.686;2022-10-16T15:45:58;6.78;;;2.45;;
48534;SDS011;34323;52.022;5.686;2022-10-16T15:48:31;10.07;;;3.50;;
48534;SDS011;34323;52.022;5.686;2022-10-16T15:50:57;9.35;;;3.42;;
48534;SDS011;34323;52.022;5.686;2022-10-16T15:53:24;15.18;;;3.40;;
48534;SDS011;34323;52.022;5.686;2022-10-16T15:55:49;16.42;;;5.07;;
48534;SDS011;34323;52.022;5.686;2022-10-16T15:58:15;11.32;;;4.43;;
48534;SDS011;34323;52.022;5.686;2022-10-16T16:00:41;10.55;;;4.43;;
48534;SDS011;34323;52.022;5.686;2022-10-16T16:03:07;14.88;;;4.45;;
48534;SDS011;34323;52.022;5.686;2022-10-16T16:05:32;15.82;;;3.65;;
48534;SDS011;34323;52.022;5.686;2022-10-16T16:08:00;8.90;;;3.58;;
48534;SDS011;34323;52.022;5.686;2022-10-16T16:10:25;12.30;;;4.35;;
48534;SDS011;34323;52.022;5.686;2022-10-16T16:12:51;8.73;;;5.50;;
48534;SDS011;34323;52.022;5.686;2022-10-16T16:15:18;8.35;;;4.65;;
48534;SDS011;34323;52.022;5.686;2022-10-16T16:17:45;20.35;;;6.20;;
48534;SDS011;34323;52.022;5.686;2022-10-16T16:20:11;21.30;;;7.60;;
48534;SDS011;34323;52.022;5.686;2022-10-16T16:22:37;15.30;;;5.80;;
48534;SDS011;34323;52.022;5.686;2022-10-16T16:25:02;9.52;;;3.67;;
48534;SDS011;34323;52.022;5.686;2022-10-16T16:27:28;9.50;;;3.67;;
48534;SDS011;34323;52.022;5.686;2022-10-16T16:29:57;5.97;;;2.30;;
48534;SDS011;34323;52.022;5.686;2022-10-16T16:32:23;5.47;;;1.88;;
48534;SDS011;34323;52.022;5.686;2022-10-16T16:34:49;5.03;;;1.92;;
48534;SDS011;34323;52.022;5.686;2022-10-16T16:37:14;5.80;;;2.22;;